This is the latest recevied weather packets stored in our database for station/object KK7MLS-13. If no packets are shown the sender has not sent any weather packets the latest 10 day(s).
| Time | Temp. | Humidity | Pressure | Rain* | Wind** | Luminosity | Snow |
|---|---|---|---|---|---|---|---|
| 1788194490 | 18.89° C | 65% | 1011.6 hPa | 0 mm | - | 369 W/m² | - |
| 1788194186 | 18.89° C | 63% | 1011.6 hPa | 0 mm | - | 53 W/m² | - |
| 1788193881 | 19.44° C | 66% | 1011.7 hPa | 0 mm | - | 51 W/m² | - |
| 1788193592 | 19.44° C | 63% | 1011.8 hPa | 0 mm | - | 50 W/m² | - |
| 1788193278 | 18.89° C | 66% | 1011.7 hPa | 0 mm | - | 50 W/m² | - |
| 1788192974 | 19.44° C | 65% | 1011.8 hPa | 0 mm | - | 294 W/m² | - |
| 1788192670 | 18.89° C | 67% | 1011.8 hPa | 0 mm | - | 279 W/m² | - |
| 1788192369 | 18.89° C | 66% | 1012.1 hPa | 0 mm | - | 266 W/m² | - |
| 1788192065 | 18.33° C | 67% | 1011.8 hPa | 0 mm | - | 253 W/m² | - |
| 1788191765 | 18.33° C | 68% | 1012 hPa | 0 mm | - | 238 W/m² | - |
| 1788191460 | 17.78° C | 71% | 1012 hPa | 0 mm | - | 224 W/m² | - |
| 1788191157 | 17.78° C | 70% | 1012 hPa | 0 mm | - | 210 W/m² | - |
| 1788190856 | 17.22° C | 72% | 1011.8 hPa | 0 mm | - | 194 W/m² | - |
| 1788190555 | 16.67° C | 74% | 1011.8 hPa | 0 mm | - | 181 W/m² | - |
| 1788190252 | 16.11° C | 74% | 1011.8 hPa | 0 mm | - | 168 W/m² | - |
| 1788189947 | 15.56° C | 76% | 1012 hPa | 0 mm | - | 154 W/m² | - |
| 1788189643 | 14.44° C | 82% | 1011.9 hPa | 0 mm | - | 136 W/m² | - |
| 1788189342 | 13.89° C | 85% | 1011.9 hPa | 0 mm | - | 123 W/m² | - |
| 1788189037 | 13.33° C | 86% | 1012.2 hPa | 0 mm | - | 35 W/m² | - |
| 1788188732 | 13.33° C | 86% | 1012.2 hPa | 0 mm | - | 35 W/m² | - |
| 1788188428 | 13.33° C | 86% | 1012.2 hPa | 0 mm | - | 33 W/m² | - |
| 1788188122 | 12.78° C | 87% | 1012.3 hPa | 0 mm | - | 31 W/m² | - |
| 1788187819 | 12.78° C | 87% | 1012.3 hPa | 0 mm | - | 30 W/m² | - |
| 1788187514 | 12.78° C | 88% | 1012 hPa | 0 mm | - | 28 W/m² | - |
| 1788187209 | 12.78° C | 87% | 1012.1 hPa | 0 mm | - | 26 W/m² | - |
* Rain latest hour (hover to see other rain measurements)
** Current wind speed in m/s (hover to see current wind gust speed)